Villa Ridge, Missouri
Current Conditions -  °F | °C
As of 11:55 AM on Sunday 25 Jan 2015 (Local Time) from KFYG Reporting Station
Light Rain Light Rain  
Wind Chill: 39°   Ceiling: Unl
Heat Index: 45°   Visibility: 3mi
Dew Point: 41°   Wind: 10mph
Humidity: 87%   Direction: 300°WNW
Pressure: 29.61"   Gusts: NA
Location:  38.47°N, 90.89°W
Report Text: KFYG 251755Z AUTO 30009KT 3SM -RA FEW010 07/05 A2961 RMK AO2
Loading
Personal Weather Stations






























Interactive Weather Map New forecast layout! Learn more

10-Day Weather Forecast

Advertisements
Track Severe Weather on mobile